createdAt,value
2022-08-30T00:00:42.009Z,20.60
2022-08-30T00:03:14.670Z,20.50
2022-08-30T00:05:43.878Z,20.50
2022-08-30T00:08:14.435Z,20.50
2022-08-30T00:10:43.129Z,20.50
2022-08-30T00:13:13.341Z,20.50
2022-08-30T00:15:42.424Z,20.40
2022-08-30T00:18:12.032Z,20.40
2022-08-30T00:20:40.558Z,20.40
2022-08-30T00:23:08.806Z,20.50
2022-08-30T00:25:37.070Z,20.40
2022-08-30T00:28:05.295Z,20.40
2022-08-30T00:30:33.842Z,20.30
2022-08-30T00:33:02.033Z,20.20
2022-08-30T00:35:31.962Z,20.20
2022-08-30T00:38:00.072Z,20.20
2022-08-30T00:40:29.305Z,20.10
2022-08-30T00:42:59.906Z,20.20
2022-08-30T00:45:32.711Z,20.30
2022-08-30T00:48:01.358Z,20.30
2022-08-30T00:50:33.698Z,20.30
2022-08-30T00:53:05.494Z,20.30
2022-08-30T00:55:34.244Z,20.40
2022-08-30T00:58:08.440Z,20.40
2022-08-30T01:00:37.412Z,20.40
2022-08-30T01:03:09.309Z,20.40
2022-08-30T01:05:40.474Z,20.40
2022-08-30T01:08:08.910Z,20.40
2022-08-30T01:10:38.275Z,20.40
2022-08-30T01:13:06.939Z,20.40
2022-08-30T01:15:35.779Z,20.30
2022-08-30T01:18:07.709Z,20.30
2022-08-30T01:20:44.654Z,20.30
2022-08-30T01:23:18.388Z,20.30
2022-08-30T01:25:49.042Z,20.20
2022-08-30T01:28:21.753Z,20.30
2022-08-30T01:30:50.543Z,20.20
2022-08-30T01:33:20.083Z,20.20
2022-08-30T01:35:53.770Z,20.20
2022-08-30T01:38:25.786Z,20.30
2022-08-30T01:40:59.508Z,20.30
2022-08-30T01:43:28.852Z,20.40
2022-08-30T01:45:56.994Z,20.30
2022-08-30T01:48:26.545Z,20.20
2022-08-30T01:50:59.695Z,20.10
2022-08-30T01:53:29.549Z,20.00
2022-08-30T01:55:58.159Z,20.00
2022-08-30T01:58:26.307Z,20.00
2022-08-30T02:00:54.459Z,20.00
2022-08-30T02:03:30.497Z,20.00
2022-08-30T02:05:58.575Z,20.00
2022-08-30T02:08:27.981Z,20.10
2022-08-30T02:10:58.024Z,20.20
2022-08-30T02:13:26.245Z,20.20
2022-08-30T02:15:54.850Z,20.20
2022-08-30T02:18:23.610Z,20.20
2022-08-30T02:20:52.465Z,20.10
2022-08-30T02:23:20.945Z,20.10
2022-08-30T02:25:50.376Z,20.10
2022-08-30T02:28:19.804Z,20.00
2022-08-30T02:30:48.389Z,20.00
2022-08-30T02:33:16.757Z,20.00
2022-08-30T02:35:45.097Z,20.00
2022-08-30T02:38:13.671Z,19.90
2022-08-30T02:40:41.876Z,19.90
2022-08-30T02:43:11.429Z,19.90
2022-08-30T02:45:39.496Z,19.90
2022-08-30T02:48:07.653Z,19.90
2022-08-30T02:50:35.823Z,19.90
2022-08-30T02:53:03.906Z,19.90
2022-08-30T02:55:32.194Z,19.90
2022-08-30T02:58:00.332Z,19.90
2022-08-30T03:00:30.207Z,19.90
2022-08-30T03:02:58.314Z,19.90
2022-08-30T03:05:26.943Z,19.90
2022-08-30T03:07:55.186Z,19.90
2022-08-30T03:10:23.500Z,19.90
2022-08-30T03:12:51.561Z,19.80
2022-08-30T03:15:19.664Z,19.80
2022-08-30T03:17:49.131Z,19.80
2022-08-30T03:20:17.212Z,19.80
2022-08-30T03:22:45.307Z,19.70
2022-08-30T03:25:13.651Z,19.70
2022-08-30T03:27:41.988Z,19.70
2022-08-30T03:30:12.063Z,19.60
2022-08-30T03:32:40.370Z,19.60
2022-08-30T03:35:10.205Z,19.50
2022-08-30T03:37:38.489Z,19.60
2022-08-30T03:40:09.024Z,19.60
2022-08-30T03:42:38.302Z,19.60
2022-08-30T03:45:09.479Z,19.60
2022-08-30T03:47:37.822Z,19.60
2022-08-30T03:50:11.852Z,19.70
2022-08-30T03:52:40.066Z,19.60
2022-08-30T03:55:09.291Z,19.60
2022-08-30T03:57:40.484Z,19.60
2022-08-30T04:00:13.018Z,19.60
2022-08-30T04:02:41.705Z,19.60
2022-08-30T04:05:12.593Z,19.50
2022-08-30T04:07:43.108Z,19.50
2022-08-30T04:10:11.777Z,19.50
2022-08-30T04:12:39.878Z,19.40
2022-08-30T04:15:10.442Z,19.40
2022-08-30T04:17:38.598Z,19.40
2022-08-30T04:20:07.661Z,19.40
2022-08-30T04:22:37.375Z,19.50
2022-08-30T04:25:06.318Z,19.50
2022-08-30T04:27:34.928Z,19.50
2022-08-30T04:30:03.004Z,19.40
2022-08-30T04:32:31.054Z,19.40
2022-08-30T04:34:59.641Z,19.40
2022-08-30T04:37:28.409Z,19.30
2022-08-30T04:40:00.622Z,19.30
2022-08-30T04:42:31.222Z,19.30
2022-08-30T04:45:00.149Z,19.20
2022-08-30T04:47:28.774Z,19.10
2022-08-30T04:49:56.907Z,19.10
2022-08-30T04:52:25.148Z,19.10
2022-08-30T04:54:55.644Z,19.10
2022-08-30T04:57:27.326Z,19.10
2022-08-30T04:59:55.842Z,19.20
2022-08-30T05:02:24.783Z,19.20
2022-08-30T05:05:10.163Z,19.30
2022-08-30T05:07:38.509Z,19.30
2022-08-30T05:10:11.100Z,19.40
2022-08-30T05:12:41.330Z,19.40
2022-08-30T05:15:10.859Z,19.50
2022-08-30T05:17:40.259Z,19.50
2022-08-30T05:20:11.278Z,19.50
2022-08-30T05:22:41.162Z,19.40
2022-08-30T05:25:09.821Z,19.50
2022-08-30T05:27:44.255Z,19.50
2022-08-30T05:30:13.761Z,19.50
2022-08-30T05:32:42.031Z,19.50
2022-08-30T05:35:11.942Z,19.50
2022-08-30T05:37:40.113Z,19.60
2022-08-30T05:40:11.206Z,19.60
2022-08-30T05:42:41.321Z,19.60
2022-08-30T05:45:12.298Z,19.60
2022-08-30T05:47:40.969Z,19.60
2022-08-30T05:50:10.078Z,19.60
2022-08-30T05:52:39.408Z,19.60
2022-08-30T05:55:09.027Z,19.60
2022-08-30T05:57:38.463Z,19.70
2022-08-30T06:00:13.509Z,19.80
2022-08-30T06:02:42.664Z,19.80
2022-08-30T06:05:14.177Z,19.90
2022-08-30T06:07:43.414Z,19.90
2022-08-30T06:10:12.307Z,20.00
2022-08-30T06:12:40.540Z,20.00
2022-08-30T06:15:09.628Z,20.00
2022-08-30T06:17:39.741Z,20.10
2022-08-30T06:20:09.390Z,20.10
2022-08-30T06:22:38.749Z,20.10
2022-08-30T06:25:08.211Z,20.20
2022-08-30T06:27:36.300Z,20.10
2022-08-30T06:30:04.892Z,20.10
2022-08-30T06:32:33.053Z,20.20
2022-08-30T06:35:02.487Z,20.20
2022-08-30T06:37:30.543Z,20.20
2022-08-30T06:39:58.953Z,20.30
2022-08-30T06:42:31.734Z,20.20
2022-08-30T06:45:00.266Z,20.30
2022-08-30T06:47:29.080Z,20.30
2022-08-30T06:49:57.833Z,20.30
2022-08-30T06:52:27.580Z,20.30
2022-08-30T06:54:58.959Z,20.30
2022-08-30T06:57:27.159Z,20.40
2022-08-30T06:59:57.480Z,20.50
2022-08-30T07:02:26.400Z,20.50
2022-08-30T07:04:54.571Z,20.50
2022-08-30T07:07:23.121Z,20.60
2022-08-30T07:09:53.869Z,20.70
2022-08-30T07:12:22.266Z,20.70
2022-08-30T07:14:50.415Z,20.70
2022-08-30T07:17:36.145Z,20.70
2022-08-30T07:20:05.520Z,20.80
2022-08-30T07:22:34.191Z,20.90
2022-08-30T07:25:03.823Z,21.00
2022-08-30T07:27:32.032Z,21.20
2022-08-30T07:30:02.563Z,21.20
2022-08-30T07:32:30.664Z,21.30
2022-08-30T07:34:58.743Z,21.40
2022-08-30T07:37:27.073Z,21.50
2022-08-30T07:39:55.289Z,21.60
2022-08-30T07:42:24.698Z,21.60
2022-08-30T07:44:56.579Z,21.70
2022-08-30T07:47:25.161Z,21.70
2022-08-30T07:49:53.242Z,21.80
2022-08-30T07:52:21.320Z,21.90
2022-08-30T07:54:52.843Z,22.00
2022-08-30T07:57:21.207Z,22.10
2022-08-30T07:59:51.030Z,22.20
2022-08-30T08:02:19.464Z,22.20
2022-08-30T08:04:48.565Z,22.40
2022-08-30T08:07:16.955Z,22.50
2022-08-30T08:09:45.144Z,22.60
2022-08-30T08:12:13.194Z,22.60
2022-08-30T08:14:41.474Z,22.70
2022-08-30T08:17:10.921Z,22.60
2022-08-30T08:19:38.983Z,22.70
2022-08-30T08:22:20.422Z,22.70
2022-08-30T08:24:49.389Z,22.70
2022-08-30T08:27:17.968Z,22.70
2022-08-30T08:29:46.073Z,22.80
2022-08-30T08:32:15.532Z,22.90
2022-08-30T08:34:43.651Z,22.90
2022-08-30T08:37:11.731Z,23.00
2022-08-30T08:39:39.811Z,23.10
2022-08-30T08:42:17.339Z,23.10
2022-08-30T08:44:55.820Z,23.20
2022-08-30T08:47:30.947Z,23.40
2022-08-30T08:50:03.035Z,23.30
2022-08-30T08:52:57.827Z,23.30
2022-08-30T08:55:26.674Z,23.40
2022-08-30T08:57:54.766Z,23.50
2022-08-30T09:00:22.925Z,23.60
2022-08-30T09:02:59.154Z,23.60
2022-08-30T09:05:32.487Z,23.60
2022-08-30T09:08:06.595Z,23.70
2022-08-30T09:10:54.686Z,23.80
2022-08-30T09:13:23.148Z,23.70
2022-08-30T09:15:54.791Z,23.60
2022-08-30T09:18:42.152Z,23.50
2022-08-30T09:21:14.607Z,23.60
2022-08-30T09:23:50.818Z,23.60
2022-08-30T09:26:30.774Z,23.70
2022-08-30T09:29:00.015Z,23.80
2022-08-30T09:31:30.426Z,23.80
2022-08-30T09:34:05.232Z,23.90
2022-08-30T09:36:36.231Z,23.90
2022-08-30T09:39:07.451Z,24.00
2022-08-30T09:41:42.620Z,24.10
2022-08-30T09:44:15.767Z,24.10
2022-08-30T09:46:50.796Z,24.30
2022-08-30T09:49:36.023Z,24.30
2022-08-30T09:52:14.041Z,24.40
2022-08-30T09:54:51.417Z,24.40
2022-08-30T09:57:33.800Z,24.50
2022-08-30T10:00:08.626Z,24.60
2022-08-30T10:02:53.831Z,24.70
2022-08-30T10:05:32.437Z,24.80
2022-08-30T10:08:12.677Z,24.90
2022-08-30T10:10:52.490Z,25.00
2022-08-30T10:13:43.318Z,25.10
2022-08-30T10:16:22.763Z,25.20
2022-08-30T10:19:01.114Z,25.30
2022-08-30T10:21:39.243Z,25.30
2022-08-30T10:24:12.079Z,25.40
2022-08-30T10:26:45.594Z,25.50
2022-08-30T10:29:19.216Z,25.50
2022-08-30T10:31:50.990Z,25.60
2022-08-30T10:34:23.042Z,25.70
2022-08-30T10:36:57.450Z,25.80
2022-08-30T10:39:30.971Z,25.70
2022-08-30T10:42:04.528Z,25.80
2022-08-30T10:44:41.308Z,25.80
2022-08-30T10:47:23.337Z,25.70
2022-08-30T10:49:58.559Z,25.70
2022-08-30T10:52:35.308Z,25.70
2022-08-30T10:55:10.753Z,25.60
2022-08-30T10:57:42.957Z,25.60
2022-08-30T11:00:15.118Z,25.50
2022-08-30T11:03:33.626Z,25.60
2022-08-30T11:06:15.279Z,25.60
2022-08-30T11:09:02.225Z,25.70
2022-08-30T11:11:42.821Z,25.90
2022-08-30T11:14:14.640Z,25.90
2022-08-30T11:16:45.667Z,26.00
2022-08-30T11:19:20.712Z,26.10
2022-08-30T11:21:50.866Z,26.20
2022-08-30T11:24:22.333Z,26.30
2022-08-30T11:26:57.594Z,26.30
2022-08-30T11:29:34.826Z,26.30
2022-08-30T11:32:24.832Z,26.20
2022-08-30T11:34:58.575Z,26.20
2022-08-30T11:37:38.568Z,26.30
2022-08-30T11:40:27.391Z,26.30
2022-08-30T11:42:57.017Z,26.50
2022-08-30T11:45:45.517Z,26.50
2022-08-30T11:48:54.429Z,26.50
2022-08-30T11:52:23.801Z,26.50
2022-08-30T11:54:59.686Z,26.60
2022-08-30T11:57:39.003Z,26.60
2022-08-30T12:00:12.343Z,26.60
2022-08-30T12:02:56.707Z,26.60
2022-08-30T12:05:51.631Z,26.60
2022-08-30T12:08:47.340Z,26.70
2022-08-30T12:12:04.512Z,26.80
2022-08-30T12:14:54.656Z,26.90
2022-08-30T12:17:45.550Z,27.00
2022-08-30T12:20:29.327Z,27.00
2022-08-30T12:22:58.577Z,27.10
2022-08-30T12:25:30.502Z,27.10
2022-08-30T12:28:15.283Z,27.00
2022-08-30T12:30:46.434Z,27.00
2022-08-30T12:33:28.893Z,27.10
2022-08-30T12:35:59.358Z,27.30
2022-08-30T12:38:29.751Z,27.50
2022-08-30T12:41:00.633Z,27.50
2022-08-30T12:43:40.593Z,27.60
2022-08-30T12:46:16.086Z,27.50
2022-08-30T12:48:45.665Z,27.50
2022-08-30T12:51:29.843Z,27.60
2022-08-30T12:54:09.282Z,27.60
2022-08-30T12:56:57.322Z,27.60
2022-08-30T13:00:01.585Z,27.80
2022-08-30T13:02:46.036Z,28.00
2022-08-30T13:05:47.918Z,28.10
2022-08-30T13:08:22.392Z,28.20
2022-08-30T13:10:54.269Z,28.40
2022-08-30T13:13:37.447Z,28.60
2022-08-30T13:16:22.817Z,28.60
2022-08-30T13:18:54.084Z,28.70
2022-08-30T13:21:25.992Z,28.90
2022-08-30T13:23:58.810Z,28.90
2022-08-30T13:26:28.288Z,29.00
2022-08-30T13:28:58.916Z,29.20
2022-08-30T13:31:28.141Z,29.20
2022-08-30T13:34:02.123Z,29.40
2022-08-30T13:36:33.126Z,29.40
2022-08-30T13:39:03.082Z,29.40
2022-08-30T13:41:33.790Z,29.40
2022-08-30T13:44:12.938Z,29.50
2022-08-30T13:46:44.788Z,29.50
2022-08-30T13:52:20.372Z,29.70
2022-08-30T13:54:50.318Z,29.80
2022-08-30T14:00:14.570Z,30.10
2022-08-30T14:02:50.130Z,30.00
2022-08-30T14:05:47.719Z,29.90
2022-08-30T14:11:03.224Z,30.00
2022-08-30T14:13:31.752Z,30.10
2022-08-30T14:18:50.625Z,30.30
2022-08-30T14:21:24.784Z,30.40
2022-08-30T14:23:53.463Z,30.50
2022-08-30T14:26:24.250Z,30.30
2022-08-30T14:28:54.320Z,30.20
2022-08-30T14:31:22.607Z,30.10
2022-08-30T14:33:51.009Z,30.10
2022-08-30T14:36:19.957Z,30.20
2022-08-30T14:38:50.317Z,30.10
2022-08-30T14:41:19.145Z,30.20
2022-08-30T14:43:47.588Z,30.40
2022-08-30T14:46:16.018Z,31.10
2022-08-30T14:48:44.627Z,31.80
2022-08-30T14:51:17.461Z,32.40
2022-08-30T14:53:46.487Z,33.50
2022-08-30T14:56:19.590Z,33.90
2022-08-30T14:58:50.724Z,34.20
2022-08-30T15:01:20.023Z,34.80
2022-08-30T15:03:48.417Z,35.20
2022-08-30T15:06:16.929Z,35.50
2022-08-30T15:08:47.706Z,36.20
2022-08-30T15:11:20.473Z,36.70
2022-08-30T15:13:49.597Z,37.20
2022-08-30T15:16:23.962Z,37.10
2022-08-30T15:18:52.154Z,37.00
2022-08-30T15:21:25.749Z,36.30
2022-08-30T15:23:54.410Z,36.00
2022-08-30T15:26:24.529Z,35.00
2022-08-30T15:28:53.358Z,34.30
2022-08-30T15:31:23.683Z,33.70
2022-08-30T15:33:52.169Z,33.20
2022-08-30T15:36:20.405Z,32.70
2022-08-30T15:38:49.017Z,31.90
2022-08-30T15:41:17.422Z,31.10
2022-08-30T15:43:47.402Z,30.70
2022-08-30T15:46:19.285Z,30.40
2022-08-30T15:48:48.167Z,30.10
2022-08-30T15:51:17.474Z,29.80
2022-08-30T15:53:46.384Z,29.50
2022-08-30T15:56:14.823Z,29.10
2022-08-30T15:58:43.697Z,28.90
2022-08-30T16:01:14.532Z,28.80
2022-08-30T16:03:44.782Z,28.70
2022-08-30T16:06:15.738Z,28.70
2022-08-30T16:08:46.268Z,28.40
2022-08-30T16:11:17.242Z,28.30
2022-08-30T16:13:50.507Z,28.30
2022-08-30T16:16:21.883Z,28.30
2022-08-30T16:18:54.188Z,28.40
2022-08-30T16:21:26.882Z,28.50
2022-08-30T16:23:57.962Z,28.30
2022-08-30T16:26:27.353Z,28.30
2022-08-30T16:28:55.991Z,28.20
2022-08-30T16:31:26.774Z,28.10
2022-08-30T16:33:55.423Z,28.20
2022-08-30T16:36:30.501Z,28.10
2022-08-30T16:38:58.695Z,28.10
2022-08-30T16:41:28.286Z,28.00
2022-08-30T16:43:57.331Z,27.90
2022-08-30T16:46:28.057Z,27.90
2022-08-30T16:48:57.894Z,27.70
2022-08-30T16:51:28.904Z,27.60
2022-08-30T16:53:57.863Z,27.60
2022-08-30T16:56:29.495Z,27.50
2022-08-30T16:59:02.611Z,27.50
2022-08-30T17:01:37.304Z,27.50
2022-08-30T17:04:06.493Z,27.40
2022-08-30T17:06:35.467Z,27.40
2022-08-30T17:09:04.383Z,27.20
2022-08-30T17:11:33.325Z,27.10
2022-08-30T17:14:01.895Z,27.10
2022-08-30T17:16:30.823Z,27.10
2022-08-30T17:19:01.755Z,26.90
2022-08-30T17:21:30.554Z,26.90
2022-08-30T17:24:02.469Z,26.90
2022-08-30T17:26:32.234Z,26.80
2022-08-30T17:29:00.412Z,26.70
2022-08-30T17:31:30.379Z,26.70
2022-08-30T17:34:03.122Z,26.60
2022-08-30T17:36:32.387Z,26.50
2022-08-30T17:39:00.695Z,26.40
2022-08-30T17:41:29.031Z,26.30
2022-08-30T17:43:57.053Z,26.30
2022-08-30T17:46:25.424Z,26.20
2022-08-30T17:48:57.751Z,26.10
2022-08-30T17:51:31.584Z,26.10
2022-08-30T17:54:00.287Z,26.10
2022-08-30T17:56:34.142Z,26.10
2022-08-30T17:59:05.328Z,26.00
2022-08-30T18:01:33.566Z,26.00
2022-08-30T18:04:06.342Z,25.90
2022-08-30T18:06:36.706Z,25.80
2022-08-30T18:09:06.675Z,25.80
2022-08-30T18:11:36.514Z,25.60
2022-08-30T18:14:05.627Z,25.60
2022-08-30T18:16:35.034Z,25.50
2022-08-30T18:19:04.240Z,25.50
2022-08-30T18:21:32.480Z,25.40
2022-08-30T18:24:01.959Z,25.40
2022-08-30T18:26:31.887Z,25.30
2022-08-30T18:29:00.675Z,25.30
2022-08-30T18:31:28.977Z,25.30
2022-08-30T18:34:00.282Z,25.30
2022-08-30T18:36:28.750Z,25.20
2022-08-30T18:38:57.075Z,25.20
2022-08-30T18:41:27.890Z,25.10
2022-08-30T18:44:17.230Z,25.10
2022-08-30T18:46:56.196Z,25.00
2022-08-30T18:49:25.650Z,24.90
2022-08-30T18:51:53.968Z,24.80
2022-08-30T18:54:22.463Z,24.80
2022-08-30T18:56:52.213Z,24.80
2022-08-30T18:59:20.461Z,24.80
2022-08-30T19:01:49.869Z,24.80
2022-08-30T19:04:22.331Z,24.70
2022-08-30T19:06:58.508Z,24.70
2022-08-30T19:09:27.027Z,24.70
2022-08-30T19:11:56.971Z,24.60
2022-08-30T19:14:28.059Z,24.60
2022-08-30T19:16:57.269Z,24.60
2022-08-30T19:19:25.418Z,24.60
2022-08-30T19:21:54.015Z,24.60
2022-08-30T19:24:22.912Z,24.60
2022-08-30T19:26:52.428Z,24.50
2022-08-30T19:29:22.204Z,24.40
2022-08-30T19:31:52.632Z,24.40
2022-08-30T19:34:21.258Z,24.30
2022-08-30T19:36:50.138Z,24.40
2022-08-30T19:39:18.625Z,24.30
2022-08-30T19:41:48.218Z,24.30
2022-08-30T19:44:16.906Z,24.30
2022-08-30T19:46:47.479Z,24.30
2022-08-30T19:49:15.705Z,24.20
2022-08-30T19:51:46.797Z,24.20
2022-08-30T19:54:15.469Z,24.20
2022-08-30T19:56:45.584Z,24.10
2022-08-30T19:59:16.258Z,24.00
2022-08-30T20:01:45.818Z,24.00
2022-08-30T20:04:15.971Z,24.00
2022-08-30T20:06:44.900Z,24.00
2022-08-30T20:09:14.258Z,23.90
2022-08-30T20:11:43.280Z,23.90
2022-08-30T20:14:13.641Z,23.90
2022-08-30T20:16:42.212Z,23.90
2022-08-30T20:19:17.062Z,23.90
2022-08-30T20:21:47.105Z,23.90
2022-08-30T20:24:18.299Z,23.80
2022-08-30T20:26:46.831Z,23.80
2022-08-30T20:29:14.966Z,23.80
2022-08-30T20:31:43.045Z,23.80
2022-08-30T20:34:11.250Z,23.80
2022-08-30T20:36:41.088Z,23.80
2022-08-30T20:39:10.088Z,23.70
2022-08-30T20:41:38.795Z,23.70
2022-08-30T20:44:11.820Z,23.80
2022-08-30T20:46:44.435Z,23.70
2022-08-30T20:49:13.098Z,23.60
2022-08-30T20:51:42.606Z,23.60
2022-08-30T20:54:10.970Z,23.60
2022-08-30T20:56:39.531Z,23.60
2022-08-30T20:59:07.828Z,23.60
2022-08-30T21:01:38.413Z,23.50
2022-08-30T21:04:08.043Z,23.50
2022-08-30T21:06:37.632Z,23.40
2022-08-30T21:09:08.533Z,23.40
2022-08-30T21:11:37.933Z,23.40
2022-08-30T21:14:07.480Z,23.40
2022-08-30T21:16:36.236Z,23.40
2022-08-30T21:19:05.271Z,23.40
2022-08-30T21:21:33.352Z,23.40
2022-08-30T21:24:06.595Z,23.30
2022-08-30T21:26:36.059Z,23.30
2022-08-30T21:29:05.254Z,23.30
2022-08-30T21:31:35.156Z,23.30
2022-08-30T21:34:03.225Z,23.30
2022-08-30T21:36:48.400Z,23.20
2022-08-30T21:39:20.207Z,23.20
2022-08-30T21:41:52.191Z,23.20
2022-08-30T21:44:22.817Z,23.20
2022-08-30T21:46:52.462Z,23.20
2022-08-30T21:49:24.245Z,23.20
2022-08-30T21:51:53.597Z,23.20
2022-08-30T21:54:23.046Z,23.10
2022-08-30T21:56:54.050Z,23.10
2022-08-30T21:59:22.717Z,23.10
2022-08-30T22:01:51.225Z,23.10
2022-08-30T22:04:24.318Z,23.10
2022-08-30T22:06:54.274Z,23.10
2022-08-30T22:09:24.671Z,23.10
2022-08-30T22:11:54.839Z,23.10
2022-08-30T22:14:23.646Z,23.10
2022-08-30T22:16:51.891Z,23.10
2022-08-30T22:19:23.354Z,23.10
2022-08-30T22:21:53.857Z,23.10
2022-08-30T22:24:32.405Z,23.10
2022-08-30T22:27:02.971Z,23.00
2022-08-30T22:29:31.493Z,23.00
2022-08-30T22:32:00.042Z,23.00
2022-08-30T22:34:28.817Z,23.00
2022-08-30T22:36:56.959Z,23.00
2022-08-30T22:39:25.475Z,22.90
2022-08-30T22:41:53.695Z,22.90
2022-08-30T22:44:23.241Z,22.90
2022-08-30T22:46:51.520Z,22.90
2022-08-30T22:49:19.553Z,22.90
2022-08-30T22:51:47.809Z,23.00
2022-08-30T22:54:15.888Z,23.00
2022-08-30T22:56:43.996Z,22.90
2022-08-30T22:59:12.077Z,22.80
2022-08-30T23:01:43.715Z,22.90
2022-08-30T23:04:13.161Z,22.90
2022-08-30T23:06:41.783Z,22.80
2022-08-30T23:09:18.607Z,22.90
2022-08-30T23:11:46.759Z,22.80
2022-08-30T23:14:15.005Z,22.80
2022-08-30T23:16:45.042Z,22.80
2022-08-30T23:19:13.349Z,22.70
2022-08-30T23:21:42.673Z,22.70
2022-08-30T23:24:28.568Z,22.70
2022-08-30T23:27:14.262Z,22.70
2022-08-30T23:29:59.701Z,22.70
2022-08-30T23:32:46.781Z,22.70
2022-08-30T23:35:33.168Z,22.70
2022-08-30T23:38:21.674Z,22.70
2022-08-30T23:41:07.450Z,22.70
2022-08-30T23:43:54.084Z,22.70
2022-08-30T23:46:39.849Z,22.60
2022-08-30T23:49:26.618Z,22.60
2022-08-30T23:52:12.260Z,22.60
2022-08-30T23:54:58.016Z,22.60
2022-08-30T23:57:44.612Z,22.60
